Time;durP1;ratioP1;P1;durP2;ratioP2;P2;SDS_P1;SDS_P2;PMS_P1;PMS_P2;Temp;Humidity;BMP_temperature;BMP_pressure;BME280_temperature;BME280_humidity;BME280_pressure;Samples;Min_cycle;Max_cycle;Signal;HPM_P1;HPM_P2
2023/10/17 00:00:17;;;;;;;;;;;;;;;7.64;57.79;98278.16;4973321;28;19937;-64
2023/10/17 00:02:48;;;;;;;;;;;;;;;7.65;57.91;98271.66;4965550;28;20287;-64
2023/10/17 00:05:16;;;;;;;;;;;;;;;7.64;57.49;98272.75;4970193;28;19934;-64
2023/10/17 00:07:45;;;;;;;;;;;;;;;7.59;58.22;98275.50;4968150;28;19921;-64
2023/10/17 00:10:15;;;;;;;;;;;;;;;7.44;58.32;98267.50;4969751;28;19922;-64
2023/10/17 00:12:50;;;;;;;;;;;;;;;7.38;58.48;98268.63;4969730;28;19922;-67
2023/10/17 00:15:27;;;;;;;;;;;;;;;7.43;58.21;98269.41;4970228;28;19929;-64
2023/10/17 00:18:02;;;;;;;;;;;;;;;7.39;58.37;98262.13;4969191;28;20295;-64
2023/10/17 00:20:37;;;;;;;;;;;;;;;7.47;58.29;98258.84;4965778;28;20083;-64
2023/10/17 00:23:06;;;;;;;;;;;;;;;7.37;58.36;98261.63;4969102;28;20021;-64
2023/10/17 00:25:35;;;;;;;;;;;;;;;7.49;58.23;98267.47;4963795;28;20323;-64
2023/10/17 00:28:03;;;;;;;;;;;;;;;7.45;58.27;98259.09;4969034;28;19968;-64
2023/10/17 00:30:31;;;;;;;;;;;;;;;7.42;58.99;98264.28;4965327;28;19923;-64
2023/10/17 00:33:01;;;;;;;;;;;;;;;7.37;58.48;98258.94;4970026;28;21700;-64
2023/10/17 00:35:36;;;;;;;;;;;;;;;7.40;58.73;98261.84;4970283;28;19957;-64
2023/10/17 00:38:07;;;;;;;;;;;;;;;7.43;58.64;98257.78;4967099;28;19934;-64
2023/10/17 00:40:44;;;;;;;;;;;;;;;7.35;58.73;98254.63;4967905;28;19960;-64
2023/10/17 00:43:12;;;;;;;;;;;;;;;7.41;58.58;98254.56;4967296;28;19922;-64
2023/10/17 00:45:41;;;;;;;;;;;;;;;7.39;58.51;98254.03;4954093;28;19922;-64
2023/10/17 00:48:17;;;;;;;;;;;;;;;7.40;58.97;98261.03;4971142;28;20379;-64
2023/10/17 00:50:45;;;;;;;;;;;;;;;7.31;59.17;98252.75;4974840;28;20117;-64
2023/10/17 00:53:15;;;;;;;;;;;;;;;7.30;58.89;98253.84;4970048;28;20688;-64
2023/10/17 00:55:50;;;;;;;;;;;;;;;7.25;58.71;98246.56;4969534;28;19926;-64
2023/10/17 00:58:19;;;;;;;;;;;;;;;7.22;59.01;98257.94;4971112;28;19926;-65
2023/10/17 01:00:53;;;;;;;;;;;;;;;7.39;58.51;98251.31;4963172;28;19937;-64
2023/10/17 01:03:25;;;;;;;;;;;;;;;7.24;58.92;98242.22;4961437;28;19922;-64
2023/10/17 01:06:10;;;;;;;;;;;;;;;7.21;58.79;98248.22;4978829;28;20481;-64
2023/10/17 01:08:39;;;;;;;;;;;;;;;7.31;58.74;98241.94;4966091;28;19965;-64
2023/10/17 01:11:14;;;;;;;;;;;;;;;7.23;58.31;98235.22;4956352;28;19926;-65
2023/10/17 01:13:42;;;;;;;;;;;;;;;7.19;58.81;98241.47;4971048;28;20314;-65
2023/10/17 01:16:15;;;;;;;;;;;;;;;7.19;58.52;98246.88;4974268;28;19926;-65
2023/10/17 01:18:45;;;;;;;;;;;;;;;7.17;58.90;98243.66;4967459;28;19922;-65
2023/10/17 01:21:15;;;;;;;;;;;;;;;7.16;58.55;98244.75;4962523;28;20018;-65
2023/10/17 01:23:46;;;;;;;;;;;;;;;7.16;58.74;98239.34;4974598;28;19926;-64
2023/10/17 01:26:20;;;;;;;;;;;;;;;7.11;58.67;98234.78;4953014;28;19921;-64
2023/10/17 01:28:48;;;;;;;;;;;;;;;7.11;58.43;98240.19;4963504;28;19981;-64
2023/10/17 01:31:22;;;;;;;;;;;;;;;7.11;58.57;98240.19;4952029;28;19929;-64
2023/10/17 01:33:50;;;;;;;;;;;;;;;7.08;58.58;98230.75;4969159;28;19922;-64
2023/10/17 01:36:19;;;;;;;;;;;;;;;7.09;58.96;98221.56;4952836;28;20390;-64
2023/10/17 01:38:49;;;;;;;;;;;;;;;7.08;58.47;98219.13;4953803;28;19961;-64
2023/10/17 01:41:20;;;;;;;;;;;;;;;7.08;58.69;98217.25;4954586;28;20006;-64
2023/10/17 01:43:48;;;;;;;;;;;;;;;7.01;59.12;98216.72;4972054;28;19933;-64
2023/10/17 01:46:21;;;;;;;;;;;;;;;6.99;58.96;98221.63;4954252;28;19956;-64
2023/10/17 01:48:49;;;;;;;;;;;;;;;7.01;58.85;98221.34;4965974;28;19977;-64
2023/10/17 01:51:19;;;;;;;;;;;;;;;6.99;58.74;98220.81;4954444;28;19957;-65
2023/10/17 01:53:50;;;;;;;;;;;;;;;6.91;59.35;98213.28;4970985;28;19929;-64
2023/10/17 01:56:20;;;;;;;;;;;;;;;6.90;59.30;98217.88;4966201;28;19922;-64
2023/10/17 01:58:50;;;;;;;;;;;;;;;7.03;58.59;98203.78;4953290;28;19922;-64
2023/10/17 02:01:21;;;;;;;;;;;;;;;6.97;58.61;98201.38;4947822;28;20016;-64
2023/10/17 02:03:49;;;;;;;;;;;;;;;6.98;58.78;98194.91;4952891;28;20327;-64
2023/10/17 02:06:19;;;;;;;;;;;;;;;6.89;58.60;98200.06;4969227;28;20275;-64
2023/10/17 02:08:47;;;;;;;;;;;;;;;6.97;58.62;98204.88;4965288;28;19922;-64
2023/10/17 02:11:24;;;;;;;;;;;;;;;7.02;58.67;98206.72;4953468;28;19932;-64
2023/10/17 02:13:56;;;;;;;;;;;;;;;6.88;58.70;98203.88;4969321;28;19922;-64
2023/10/17 02:16:24;;;;;;;;;;;;;;;6.86;59.04;98202.53;4971108;28;19953;-64
2023/10/17 02:18:52;;;;;;;;;;;;;;;6.95;58.76;98196.25;4959799;28;19922;-64
2023/10/17 02:21:22;;;;;;;;;;;;;;;6.84;59.11;98202.81;4960664;28;19929;-64
2023/10/17 02:23:50;;;;;;;;;;;;;;;6.86;58.75;98194.41;4978041;28;19921;-64
2023/10/17 02:26:21;;;;;;;;;;;;;;;6.86;59.20;98202.53;4973337;28;20263;-64
2023/10/17 02:28:53;;;;;;;;;;;;;;;6.83;58.94;98199.31;4970861;28;20029;-64
2023/10/17 02:31:29;;;;;;;;;;;;;;;6.79;58.93;98200.13;4970378;28;20368;-64
2023/10/17 02:33:57;;;;;;;;;;;;;;;6.81;58.88;98206.06;4972662;28;19933;-65
2023/10/17 02:36:24;;;;;;;;;;;;;;;6.77;59.04;98207.72;4956165;28;19922;-64
2023/10/17 02:38:52;;;;;;;;;;;;;;;6.79;58.80;98209.03;4966914;28;19929;-64
2023/10/17 02:41:22;;;;;;;;;;;;;;;6.80;59.15;98199.03;4968848;28;20360;-64
2023/10/17 02:43:52;;;;;;;;;;;;;;;6.76;58.74;98208.78;4959287;28;19926;-64
2023/10/17 02:46:26;;;;;;;;;;;;;;;6.71;59.05;98206.94;4973155;28;19928;-64
2023/10/17 02:48:54;;;;;;;;;;;;;;;6.68;59.19;98207.50;4970418;28;19929;-64
2023/10/17 02:51:33;;;;;;;;;;;;;;;6.66;58.88;98206.97;4975115;28;19965;-64
2023/10/17 02:54:05;;;;;;;;;;;;;;;6.63;59.59;98199.41;4968187;28;19926;-64
2023/10/17 02:56:38;;;;;;;;;;;;;;;6.60;59.38;98204.56;4965924;28;19929;-64
2023/10/17 02:59:07;;;;;;;;;;;;;;;6.59;59.27;98206.44;4962443;28;19948;-64
2023/10/17 03:01:37;;;;;;;;;;;;;;;6.57;59.30;98200.53;4965761;28;19982;-64
2023/10/17 03:04:08;;;;;;;;;;;;;;;6.56;59.43;98201.63;4955849;28;19922;-64
2023/10/17 03:06:38;;;;;;;;;;;;;;;6.58;59.32;98202.16;4976858;28;20395;-64
2023/10/17 03:09:32;;;;;;;;;;;;;;;6.47;59.82;98211.38;4965624;28;19926;-64
2023/10/17 03:12:07;;;;;;;;;;;;;;;6.54;59.13;98206.47;4975030;28;19922;-65
2023/10/17 03:14:40;;;;;;;;;;;;;;;6.57;59.10;98205.94;4974783;28;19922;-64
2023/10/17 03:17:08;;;;;;;;;;;;;;;6.52;59.74;98217.56;4958254;28;19922;-64
2023/10/17 03:19:37;;;;;;;;;;;;;;;6.49;59.59;98214.59;4974422;28;19932;-64
2023/10/17 03:22:16;;;;;;;;;;;;;;;6.58;59.42;98215.63;4969267;28;19948;-64
2023/10/17 03:24:45;;;;;;;;;;;;;;;6.56;59.16;98212.41;4966382;28;19933;-64
2023/10/17 03:27:23;;;;;;;;;;;;;;;6.62;59.14;98216.72;4946453;28;20268;-64
2023/10/17 03:29:52;;;;;;;;;;;;;;;6.65;59.18;98208.03;4968250;28;19930;-64
2023/10/17 03:32:23;;;;;;;;;;;;;;;6.66;59.05;98208.84;4954211;28;19922;-64
2023/10/17 03:34:56;;;;;;;;;;;;;;;6.59;59.28;98209.16;4966655;28;19923;-64
2023/10/17 03:37:32;;;;;;;;;;;;;;;6.59;59.46;98216.44;4961167;28;20121;-64
2023/10/17 03:40:14;;;;;;;;;;;;;;;6.66;59.74;98209.66;4949236;28;19973;-64
2023/10/17 03:42:43;;;;;;;;;;;;;;;6.61;59.34;98211.59;4977034;28;19922;-64
2023/10/17 03:45:16;;;;;;;;;;;;;;;6.52;59.97;98214.06;4964938;28;19930;-65
2023/10/17 03:47:48;;;;;;;;;;;;;;;6.57;59.77;98212.13;4971850;28;19952;-64
2023/10/17 03:50:31;;;;;;;;;;;;;;;6.56;59.80;98204.31;4967714;28;19969;-65
2023/10/17 03:53:05;;;;;;;;;;;;;;;6.55;59.54;98197.28;4966117;28;19949;-64
2023/10/17 03:55:35;;;;;;;;;;;;;;;6.51;59.84;98207.03;4973460;28;19967;-64
2023/10/17 03:58:08;;;;;;;;;;;;;;;6.53;59.69;98205.66;4963490;28;19957;-65
2023/10/17 04:00:44;;;;;;;;;;;;;;;6.53;59.77;98204.88;4973424;28;20387;-65
2023/10/17 04:03:21;;;;;;;;;;;;;;;6.45;59.76;98208.97;4973577;28;19922;-64
2023/10/17 04:05:50;;;;;;;;;;;;;;;6.55;59.49;98216.19;4967824;28;19929;-64
2023/10/17 04:08:25;;;;;;;;;;;;;;;6.52;59.59;98222.16;4968894;28;19940;-65
2023/10/17 04:11:08;;;;;;;;;;;;;;;6.62;59.57;98213.19;4971273;28;20369;-65
2023/10/17 04:13:39;;;;;;;;;;;;;;;6.60;59.61;98210.75;4966107;28;19922;-65
2023/10/17 04:16:10;;;;;;;;;;;;;;;6.65;59.46;98212.63;4971135;28;19949;-64
2023/10/17 04:18:39;;;;;;;;;;;;;;;6.69;59.02;98209.09;4971033;28;20201;-64
2023/10/17 04:21:17;;;;;;;;;;;;;;;6.67;59.22;98219.38;4966966;28;19945;-65
2023/10/17 04:23:48;;;;;;;;;;;;;;;6.64;59.32;98213.72;4972889;28;19926;-65
2023/10/17 04:26:19;;;;;;;;;;;;;;;6.67;59.10;98213.97;4967049;28;20364;-65
2023/10/17 04:28:49;;;;;;;;;;;;;;;6.68;58.67;98207.50;4965230;28;19927;-64
2023/10/17 04:31:25;;;;;;;;;;;;;;;6.77;58.90;98203.13;4964513;28;19932;-64
2023/10/17 04:34:06;;;;;;;;;;;;;;;6.77;58.76;98200.44;4963165;28;19957;-64
2023/10/17 04:36:37;;;;;;;;;;;;;;;6.78;58.37;98202.03;4969284;28;20327;-64
2023/10/17 04:39:12;;;;;;;;;;;;;;;6.70;58.37;98186.41;4970179;28;19933;-64
2023/10/17 04:42:04;;;;;;;;;;;;;;;6.78;58.23;98198.53;4966208;28;19929;-64
2023/10/17 04:44:50;;;;;;;;;;;;;;;6.78;58.91;98193.94;4973104;28;19928;-64
2023/10/17 04:47:29;;;;;;;;;;;;;;;6.74;58.46;98192.88;4970689;28;19969;-65
2023/10/17 04:49:57;;;;;;;;;;;;;;;6.85;58.38;98200.91;4977833;28;19922;-63
2023/10/17 04:55:21;;;;;;;;;;;;;;;7.01;57.63;98211.34;4963416;28;19922;-63
2023/10/17 04:57:56;;;;;;;;;;;;;;;7.11;57.77;98215.88;4964021;28;19930;-63
2023/10/17 05:00:43;;;;;;;;;;;;;;;7.07;57.65;98214.81;4964439;28;19929;-63
2023/10/17 05:03:26;;;;;;;;;;;;;;;6.95;58.47;98184.66;4961073;28;19922;-63
2023/10/17 05:06:18;;;;;;;;;;;;;;;6.85;58.56;98165.81;4964025;28;19934;-63
2023/10/17 05:09:00;;;;;;;;;;;;;;;6.92;58.39;98166.28;4966313;28;20016;-63
2023/10/17 06:18:17;;;;;;;;;;;;;;;7.30;56.85;98200.59;4964700;28;20421;-63
2023/10/17 06:26:46;;;;;;;;;;;;;;;7.14;57.35;98220.72;4973372;28;19933;-62
2023/10/17 06:32:15;;;;;;;;;;;;;;;7.13;57.52;98229.88;4969558;28;20004;-62
2023/10/17 06:34:44;;;;;;;;;;;;;;;7.23;57.78;98234.41;4966882;28;19918;-62
2023/10/17 06:37:19;;;;;;;;;;;;;;;7.23;57.30;98229.81;4974480;28;19918;-63
2023/10/17 06:39:46;;;;;;;;;;;;;;;7.23;57.70;98229.00;4972385;28;19918;-63
2023/10/17 06:42:15;;;;;;;;;;;;;;;7.24;57.47;98242.22;4970133;28;20013;-62
2023/10/17 06:44:52;;;;;;;;;;;;;;;7.24;57.25;98247.63;4984273;28;19918;-62
2023/10/17 06:47:22;;;;;;;;;;;;;;;7.20;57.35;98245.81;4979460;28;19926;-62
2023/10/17 06:52:40;;;;;;;;;;;;;;;7.33;57.52;98248.66;4955769;28;20439;-63
2023/10/17 06:55:08;;;;;;;;;;;;;;;7.40;57.46;98242.94;4977957;28;20626;-63
2023/10/17 06:57:37;;;;;;;;;;;;;;;7.49;57.34;98243.16;4973312;28;19928;-63
2023/10/17 07:00:16;;;;;;;;;;;;;;;7.48;56.69;98241.53;4973460;28;19918;-65
2023/10/17 07:02:48;;;;;;;;;;;;;;;7.45;57.13;98242.09;4970172;28;20020;-63
2023/10/17 07:05:21;;;;;;;;;;;;;;;7.49;57.26;98243.16;4976620;28;20355;-64
2023/10/17 07:07:52;;;;;;;;;;;;;;;7.48;57.40;98244.25;4967526;28;19933;-64
2023/10/17 07:10:37;;;;;;;;;;;;;;;7.47;57.22;98246.13;4971018;28;19918;-63
2023/10/17 07:13:23;;;;;;;;;;;;;;;7.47;57.49;98243.44;4973696;28;19918;-63
2023/10/17 07:15:53;;;;;;;;;;;;;;;7.41;57.46;98249.16;4969409;28;19929;-63
2023/10/17 07:21:17;;;;;;;;;;;;;;;7.37;57.69;98257.03;4949905;28;20373;-63
2023/10/17 07:23:46;;;;;;;;;;;;;;;7.34;57.95;98258.38;4972365;28;19922;-63
2023/10/17 07:26:17;;;;;;;;;;;;;;;7.35;57.84;98257.31;4953702;28;19950;-63
2023/10/17 07:28:45;;;;;;;;;;;;;;;7.45;57.69;98253.69;4969535;28;19928;-63
2023/10/17 07:31:14;;;;;;;;;;;;;;;7.56;57.91;98252.56;4967642;28;19926;-63
2023/10/17 07:33:43;;;;;;;;;;;;;;;7.64;57.83;98251.13;4968954;28;19968;-63
2023/10/17 07:36:13;;;;;;;;;;;;;;;7.67;57.35;98239.75;4964590;28;20045;-63
2023/10/17 07:38:43;;;;;;;;;;;;;;;7.66;57.88;98227.31;4965096;28;19930;-63
2023/10/17 07:41:13;;;;;;;;;;;;;;;7.69;57.81;98224.03;4970916;28;19968;-63
2023/10/17 07:43:44;;;;;;;;;;;;;;;7.67;57.78;98220.84;4967320;28;19922;-64
2023/10/17 07:46:18;;;;;;;;;;;;;;;7.65;57.64;98223.00;4974424;28;19922;-64
2023/10/17 07:48:48;;;;;;;;;;;;;;;7.72;58.02;98225.34;4966058;28;19929;-63
2023/10/17 07:51:16;;;;;;;;;;;;;;;7.68;57.95;98222.44;4974149;28;19918;-63
2023/10/17 07:53:46;;;;;;;;;;;;;;;7.68;58.15;98230.56;4969535;28;19953;-63
2023/10/17 07:56:21;;;;;;;;;;;;;;;7.75;58.50;98232.91;4969576;28;19978;-64
2023/10/17 07:58:56;;;;;;;;;;;;;;;7.76;58.29;98232.63;4966998;28;19922;-63
2023/10/17 08:01:32;;;;;;;;;;;;;;;7.76;58.39;98238.03;4966217;28;19965;-63
2023/10/17 08:04:13;;;;;;;;;;;;;;;7.81;58.22;98239.88;4971224;28;19918;-63
2023/10/17 08:06:41;;;;;;;;;;;;;;;7.88;58.28;98241.19;4979282;28;19934;-63
2023/10/17 08:09:23;;;;;;;707.10;286.30;;;;;;;7.79;58.18;98242.09;4972575;28;20731;-63
2023/10/17 08:11:54;;;;;;;;;;;;;;;7.84;58.34;98239.34;4978444;28;20436;-63
2023/10/17 08:14:26;;;;;;;;;;;;;;;7.98;58.10;98228.63;4977049;28;19922;-63
2023/10/17 08:16:58;;;;;;;;;;;;;;;8.08;57.86;98228.53;4971078;28;19917;-64
2023/10/17 08:19:30;;;;;;;;;;;;;;;8.13;57.54;98220.34;4965949;28;19981;-63
2023/10/17 08:22:09;;;;;;;;;;;;;;;8.14;57.64;98222.75;4974425;28;20367;-63
2023/10/17 08:24:44;;;;;;;;;;;;;;;8.05;57.91;98224.50;4967795;28;20011;-63
2023/10/17 08:27:17;;;;;;;;;;;;;;;8.09;57.72;98232.84;4975157;28;20375;-63
2023/10/17 08:29:48;;;;;;;;;;;;;;;8.19;57.12;98232.72;4977226;28;20272;-64
2023/10/17 08:35:18;;;;;;;;;;;;;;;8.12;57.50;98224.16;4966007;28;19918;-63
2023/10/17 08:37:46;;;;;;;;;;;;;;;7.99;57.46;98224.81;4968241;28;19919;-63
2023/10/17 08:40:40;;;;;;;;;;;;;;;8.09;57.69;98230.13;4974512;28;19921;-64
2023/10/17 08:43:11;;;;;;;;;;;;;;;8.26;57.68;98237.81;4972457;28;20316;-63
2023/10/17 08:45:39;;;;;;;;;;;;;;;8.34;57.42;98227.16;4955776;28;20288;-63
2023/10/17 08:48:09;;;;;;;;;;;;;;;8.46;56.85;98228.66;4962298;28;19925;-63
2023/10/17 08:50:40;;;;;;;;;;;;;;;8.59;56.64;98223.34;4962376;28;20249;-64
2023/10/17 08:53:13;;;;;;;;;;;;;;;8.70;56.76;98221.31;4973595;28;19924;-63
2023/10/17 08:55:42;;;;;;;;;;;;;;;8.82;56.13;98229.81;4966451;28;19923;-64
2023/10/17 08:58:10;;;;;;;;;;;;;;;8.75;56.00;98221.25;4970189;28;19918;-63
2023/10/17 09:00:55;;;;;;;;;;;;;;;8.79;56.10;98214.16;4971975;28;20276;-64
2023/10/17 09:03:28;;;;;;;;;;;;;;;8.77;56.15;98221.75;4966619;28;19926;-63
2023/10/17 09:06:06;;;;;;;;;;;;;;;8.82;56.40;98221.69;4967087;28;19953;-63
2023/10/17 09:08:52;;;;;;;;;;;;;;;8.75;55.67;98221.25;4966685;28;19918;-64
2023/10/17 09:11:34;;;;;;;;;;;;;;;8.83;55.51;98212.47;4975092;28;19928;-64
2023/10/17 09:14:17;;;;;;;;;;;;;;;8.90;55.28;98212.91;4976479;28;19918;-64
2023/10/17 09:16:49;;;;;;;;;;;;;;;8.96;55.28;98226.41;4971787;28;19925;-64
2023/10/17 09:19:21;;;;;;;;;;;;;;;8.89;54.78;98211.31;4971835;28;20272;-64
2023/10/17 09:21:49;;;;;;;;;;;;;;;8.93;54.76;98215.03;4963228;28;19921;-64
2023/10/17 09:24:36;;;;;;;;;;;;;;;9.06;55.40;98218.13;4967715;28;20852;-64
2023/10/17 09:27:09;;;;;;;;;;;;;;;9.15;55.21;98213.63;4966721;28;19922;-64
2023/10/17 09:29:45;;;;;;;;;;;;;;;9.25;55.06;98216.19;4959025;28;20416;-64
2023/10/17 09:32:13;;;;;;;;;;;;;;;9.15;54.74;98214.44;4961334;28;19929;-64
2023/10/17 09:34:44;;;;;;;;;;;;;;;9.18;54.55;98204.91;4969125;28;19922;-64
2023/10/17 09:37:13;;;;;;;;;;;;;;;9.12;53.86;98214.22;4971441;28;20382;-64
2023/10/17 09:39:46;;;;;;;;;;;;;;;9.21;54.17;98223.28;4967474;28;20353;-63
2023/10/17 09:42:16;;;;;;;;;;;;;;;9.32;53.56;98215.81;4964677;28;19922;-64
2023/10/17 09:44:43;;;;;;;;;;;;;;;9.41;53.53;98205.91;4975721;28;19921;-63
2023/10/17 09:47:14;;;;;;;;;;;;;;;9.46;53.51;98200.41;4964264;28;19930;-63
2023/10/17 09:49:44;;;;;;;;;;;;;;;9.50;53.40;98203.34;4971024;28;19928;-67
2023/10/17 09:52:14;;;;;;;;;;;;;;;9.51;53.58;98204.94;4962438;28;19926;-64
2023/10/17 09:54:41;;;;;;;;;;;;;;;9.60;53.31;98198.53;4960712;28;19922;-64
2023/10/17 09:57:12;;;;;;;;;;;;;;;9.63;53.03;98191.69;4971041;28;19926;-63
2023/10/17 09:59:41;;;;;;;;;;;;;;;9.65;52.69;98195.75;4967712;28;19918;-63
2023/10/17 10:02:09;;;;;;;;;;;;;;;9.64;52.92;98193.31;4968308;28;19918;-64
2023/10/17 10:04:38;;;;;;;;;;;;;;;9.71;53.10;98199.16;4971794;28;20081;-64
2023/10/17 10:07:20;;;;;;;;;;;;;;;9.74;52.33;98190.41;4970303;28;19918;-64
2023/10/17 10:09:48;;;;;;;;;;;;;;;9.59;52.65;98183.38;4964793;28;20432;-64
2023/10/17 10:12:17;;;;;;;;;;;;;;;9.66;53.15;98189.22;4972008;28;19930;-64
2023/10/17 10:14:47;;;;;;;;;;;;;;;9.75;52.74;98193.94;4968156;28;19929;-64
2023/10/17 10:17:15;;;;;;;;;;;;;;;9.80;52.18;98194.66;4970215;28;19926;-64
2023/10/17 10:19:59;;;;;;;;;;;;;;;9.84;52.07;98182.09;4972224;28;19925;-64
2023/10/17 10:22:42;;;;;;;;;;;;;;;9.91;52.01;98185.22;4967495;28;19952;-64
2023/10/17 10:25:12;;;;;;;;;;;;;;;9.96;51.98;98177.00;4968354;28;20344;-64
2023/10/17 10:27:40;;;;;;;;;;;;;;;10.01;52.17;98175.28;4964825;28;20391;-64
2023/10/17 10:30:29;;;;;;;;;;;;;;;10.11;53.08;98173.16;4970450;28;19969;-64
2023/10/17 10:32:58;;;;;;;;;;;;;;;10.18;51.71;98175.50;4965073;28;20616;-64
2023/10/17 10:35:26;;;;;;;;;;;;;;;10.13;51.20;98164.75;4965848;28;20422;-64
2023/10/17 10:37:55;;;;;;;;;;;;;;;10.13;51.24;98162.81;4969387;28;19922;-64
2023/10/17 10:40:26;;;;;;;;;;;;;;;10.21;51.50;98162.09;4968804;28;19922;-64
2023/10/17 10:42:56;;;;;;;;;;;;;;;10.25;51.53;98147.97;4974832;28;20001;-65
2023/10/17 10:45:29;;;;;;;;;;;;;;;10.28;51.21;98144.63;4964189;28;19925;-64
2023/10/17 10:48:01;;;;;;;;;;;;;;;10.30;51.34;98145.94;4966501;28;19965;-65
2023/10/17 10:50:30;;;;;;;;;;;;;;;10.22;50.92;98152.03;4961766;28;20428;-63
2023/10/17 10:52:58;;;;;;;;;;;;;;;10.08;51.01;98137.69;4966345;28;20008;-64
2023/10/17 10:55:27;;;;;;;;;;;;;;;10.11;51.79;98153.34;4964565;28;19925;-64
2023/10/17 10:57:56;;;;;;;;;;;;;;;10.12;51.41;98155.78;4967166;28;19918;-64
2023/10/17 11:00:23;;;;;;;;;;;;;;;10.12;51.71;98157.69;4973175;28;19943;-64
2023/10/17 11:02:51;;;;;;;;;;;;;;;10.12;50.88;98155.78;4967473;28;19918;-63
2023/10/17 11:05:19;;;;;;;;;;;;;;;10.20;51.78;98154.28;4974838;28;19925;-64
2023/10/17 11:07:47;;;;;;;;;;;;;;;10.21;51.02;98143.09;4968110;28;20277;-64
2023/10/17 11:10:15;;;;;;;;;;;;;;;10.29;50.99;98146.25;4971053;28;19929;-64
2023/10/17 11:12:53;;;;;;;;;;;;;;;10.42;50.69;98148.94;4954124;28;19938;-64
2023/10/17 11:15:26;;;;;;;;;;;;;;;10.46;49.84;98139.06;4973261;28;19964;-64
2023/10/17 11:18:06;;;;;;;;;;;;;;;10.52;49.71;98126.19;4978102;28;19922;-64
2023/10/17 11:20:35;;;;;;;;;;;;;;;10.46;50.10;98132.84;4965431;28;19930;-64
2023/10/17 11:23:03;;;;;;;;;;;;;;;10.48;50.65;98131.41;4967300;28;20038;-63
2023/10/17 11:25:31;;;;;;;;;;;;;;;10.53;50.74;98122.34;4964905;28;20430;-64
2023/10/17 11:28:05;;;;;;;;;;;;;;;10.58;50.27;98121.44;4964848;28;19922;-64
2023/10/17 11:30:40;;;;;;;;;;;;;;;10.67;50.27;98116.91;4966756;28;20355;-64
2023/10/17 11:33:10;;;;;;;;;;;;;;;10.71;49.74;98107.03;4965140;28;19923;-65
2023/10/17 11:35:38;;;;;;;;;;;;;;;10.76;49.28;98101.47;4960966;28;19918;-64
2023/10/17 11:38:07;;;;;;;;;;;;;;;10.75;50.36;98103.38;4971242;28;19976;-64
2023/10/17 11:40:43;;;;;;;;;;;;;;;10.75;50.48;98094.41;4967543;28;19922;-64
2023/10/17 11:43:16;;;;;;;;;;;;;;;10.75;50.92;98097.94;4970023;28;19924;-64
2023/10/17 11:45:44;;;;;;;;;;;;;;;10.80;50.35;98099.72;4974553;28;19924;-64
2023/10/17 11:48:27;;;;;;;;;;;;;;;10.86;50.96;98101.22;4956539;28;19922;-65
2023/10/17 11:51:10;;;;;;;;;;;;;;;10.83;50.46;98093.69;4969892;28;20253;-64
2023/10/17 11:53:38;;;;;;;;;;;;;;;10.84;50.70;98106.16;4963111;28;19918;-64
2023/10/17 11:56:06;;;;;;;;;;;;;;;10.81;49.59;98114.91;4969366;28;19922;-64
2023/10/17 11:58:35;;;;;;;;;;;;;;;10.80;49.89;98121.47;4974531;28;19922;-64
2023/10/17 12:01:03;;;;;;;;;;;;;;;10.72;49.25;98122.22;4969939;28;19918;-64
2023/10/17 12:03:32;;;;;;;;;;;;;;;10.74;49.88;98118.06;4975051;28;19922;-64
2023/10/17 12:06:00;;;;;;;;;;;;;;;10.69;48.79;98111.94;4973527;28;19925;-64
2023/10/17 12:08:30;;;;;;;;;;;;;;;10.61;48.78;98124.38;4970236;28;20352;-64
2023/10/17 12:10:59;;;;;;;;;;;;;;;10.67;49.35;98127.78;4967540;28;19930;-63
2023/10/17 12:13:27;;;;;;;;;;;;;;;10.69;49.61;98125.53;4970259;28;19928;-64
2023/10/17 12:15:59;;;;;;;;;;;;;;;10.61;49.99;98121.66;4960142;28;19924;-64
2023/10/17 12:18:27;;;;;;;;;;;;;;;10.56;49.86;98102.75;4965713;28;19922;-64
2023/10/17 12:20:55;;;;;;;;;;;;;;;10.61;50.24;98102.63;4978482;28;19917;-64
2023/10/17 12:23:29;;;;;;;;;;;;;;;10.68;49.67;98103.00;4976953;28;19921;-64
2023/10/17 12:25:58;;;;;;;;;;;;;;;10.72;50.40;98097.75;4972835;28;19922;-64
2023/10/17 12:28:27;;;;;;;;;;;;;;;10.73;50.76;98093.94;4963768;28;19918;-64
2023/10/17 12:30:57;;;;;;;;;;;;;;;10.81;50.17;98087.75;4967702;28;19976;-64
2023/10/17 12:33:25;;;;;;;;;;;;;;;10.83;50.26;98082.81;4968466;28;19925;-64
2023/10/17 12:35:53;;;;;;;;;;;;;;;10.81;49.90;98090.47;4970009;28;20311;-64
2023/10/17 12:38:33;;;;;;;;;;;;;;;10.76;49.97;98087.88;4973193;28;19918;-64
2023/10/17 12:41:02;;;;;;;;;;;;;;;10.68;50.73;98086.69;4964193;28;19941;-64
2023/10/17 12:43:32;;;;;;;;;;;;;;;10.66;50.99;98082.69;4970029;28;20716;-64
2023/10/17 12:46:01;;;;;;;;;;;;;;;10.62;51.57;98068.09;4964541;28;19925;-64
2023/10/17 12:48:29;;;;;;;;;;;;;;;10.56;51.22;98075.56;4966874;28;20273;-64
2023/10/17 12:50:57;;;;;;;;;;;;;;;10.53;50.88;98069.94;4971635;28;19928;-64
2023/10/17 12:53:25;;;;;;;;;;;;;;;10.59;51.31;98077.66;4970694;28;20013;-64
2023/10/17 12:55:55;;;;;;;;;;;;;;;10.59;50.37;98077.66;4970305;28;20271;-64
2023/10/17 12:58:23;;;;;;;;;;;;;;;10.56;50.57;98074.78;4971003;28;19922;-64
2023/10/17 13:00:50;;;;;;;;;;;;;;;10.53;50.27;98070.75;4967395;28;20467;-64
2023/10/17 13:03:19;;;;;;;;;;;;;;;10.58;50.39;98077.97;4966628;28;20360;-64
2023/10/17 13:05:48;;;;;;;;;;;;;;;10.60;50.52;98073.03;4969068;28;19929;-64
2023/10/17 13:08:18;;;;;;;;;;;;;;;10.62;50.54;98071.63;4963224;28;20377;-63
2023/10/17 13:10:46;;;;;;;;;;;;;;;10.69;50.23;98077.44;4956672;28;20494;-64
2023/10/17 13:13:17;;;;;;;;;;;;;;;10.73;50.17;98077.63;4966548;28;20368;-64
2023/10/17 13:15:45;;;;;;;;;;;;;;;10.74;51.10;98073.78;4965327;28;19922;-64
2023/10/17 13:18:14;;;;;;;;;;;;;;;10.78;50.30;98066.63;4964741;28;20025;-64
2023/10/17 13:20:48;;;;;;;;;;;;;;;10.76;49.96;98063.44;4965394;28;19922;-64
2023/10/17 13:23:25;;;;;;;;;;;;;;;10.71;50.08;98058.91;4972213;28;19924;-64
2023/10/17 13:25:53;;;;;;;;;;;;;;;10.72;50.31;98057.00;4966722;28;20363;-64
2023/10/17 13:28:21;;;;;;;;;;;;;;;10.79;50.78;98054.66;4965086;28;19922;-63
2023/10/17 13:30:49;;;;;;;;;;;;;;;10.81;51.18;98049.69;4948233;28;20363;-63
2023/10/17 13:33:20;;;;;;;;;;;;;;;10.82;50.95;98032.31;4965449;28;19926;-64
2023/10/17 13:35:51;;;;;;;;;;;;;;;10.85;50.44;98025.44;4963631;28;19922;-64
2023/10/17 13:38:20;;;;;;;;;;;;;;;10.90;50.22;98030.75;4960473;28;20356;-64
2023/10/17 13:40:48;;;;;;;;;;;;;;;10.95;50.21;98036.84;4969450;28;19922;-64
2023/10/17 13:43:15;;;;;;;;;;;;;;;10.93;50.37;98028.22;4969044;28;19949;-64
2023/10/17 13:45:43;;;;;;;;;;;;;;;11.00;50.93;98031.28;4968524;28;19918;-64
2023/10/17 13:48:11;;;;;;;;;;;;;;;11.04;50.29;98028.75;4968611;28;20375;-64
2023/10/17 13:50:39;;;;;;;;;;;;;;;10.92;49.99;98032.06;4967472;28;19918;-64
2023/10/17 13:53:14;;;;;;;;;;;;;;;10.96;50.60;98037.66;4971014;28;19922;-64
2023/10/17 13:55:42;;;;;;;;;;;;;;;10.95;50.61;98045.00;4962654;28;20390;-64
2023/10/17 13:58:11;;;;;;;;;;;;;;;10.98;50.65;98043.59;4977573;28;19918;-64
2023/10/17 14:00:44;;;;;;;;;;;;;;;10.96;50.75;98038.44;4970135;28;19922;-64
2023/10/17 14:03:13;;;;;;;;;;;;;;;10.93;50.95;98022.78;4967467;28;20605;-64
2023/10/17 14:05:43;;;;;;;;;;;;;;;11.02;51.09;98037.22;4975599;28;19918;-64
2023/10/17 14:08:13;;;;;;;;;;;;;;;11.08;51.68;98024.31;4971402;28;19918;-64
2023/10/17 14:10:43;;;;;;;;;;;;;;;11.18;51.36;98031.38;4963719;28;19925;-65
2023/10/17 14:13:12;;;;;;;;;;;;;;;11.30;51.15;98031.63;4948349;29;19929;-64
2023/10/17 14:15:40;;;;;;;;;;;;;;;11.43;51.11;98027.19;4966946;28;19929;-64
2023/10/17 14:18:13;;;;;;;;;;;;;;;11.53;49.97;98024.19;4971113;28;19922;-64
2023/10/17 14:21:03;;;;;;;;;;;;;;;11.55;50.07;98019.22;4968215;28;19973;-64
2023/10/17 14:23:32;;;;;;;;;;;;;;;11.55;49.30;98014.56;4964294;28;19926;-64
2023/10/17 14:26:09;;;;;;;;;;;;;;;11.62;49.14;98013.34;4968206;28;19918;-64
2023/10/17 14:28:36;;;;;;;;;;;;;;;11.74;48.82;98016.25;4968739;28;19976;-64
2023/10/17 14:31:06;;;;;;;;;;;;;;;11.85;48.40;98012.13;4967125;28;19930;-65
2023/10/17 14:33:34;;;;;;;;;;;;;;;11.95;48.06;98011.06;4967264;28;19925;-65
2023/10/17 14:36:03;;;;;;;;;;;;;;;11.91;47.28;98010.88;4965051;28;19922;-64
2023/10/17 14:38:33;;;;;;;;;;;;;;;12.01;47.50;98005.13;4974963;28;20304;-64
2023/10/17 14:41:08;;;;;;;;;;;;;;;12.11;46.92;98001.31;4964960;28;19958;-64
2023/10/17 14:43:36;;;;;;;;;;;;;;;12.15;46.77;98001.47;4968435;28;19929;-65